createdAt,value
2018-03-26T00:01:56.927Z,17.73
2018-03-26T00:04:24.620Z,14.02
2018-03-26T00:06:52.401Z,16.08
2018-03-26T00:09:20.078Z,17.00
2018-03-26T00:11:47.701Z,14.07
2018-03-26T00:14:16.117Z,14.82
2018-03-26T00:16:43.769Z,14.20
2018-03-26T00:19:12.198Z,14.95
2018-03-26T00:21:39.827Z,16.27
2018-03-26T00:24:07.494Z,15.23
2018-03-26T00:26:35.119Z,14.95
2018-03-26T00:29:02.772Z,14.18
2018-03-26T00:31:30.443Z,13.87
2018-03-26T00:33:58.136Z,15.82
2018-03-26T00:36:25.793Z,15.77
2018-03-26T00:38:53.461Z,15.50
2018-03-26T00:41:21.126Z,15.63
2018-03-26T00:43:48.776Z,13.80
2018-03-26T00:46:16.399Z,14.73
2018-03-26T00:48:44.848Z,15.45
2018-03-26T00:51:13.283Z,16.90
2018-03-26T00:53:44.081Z,16.42
2018-03-26T00:56:11.745Z,13.75
2018-03-26T00:58:40.176Z,13.05
2018-03-26T01:01:07.893Z,14.10
2018-03-26T01:03:35.528Z,12.73
2018-03-26T01:06:04.110Z,13.20
2018-03-26T01:08:32.614Z,13.45
2018-03-26T01:11:00.705Z,13.90
2018-03-26T01:13:29.835Z,16.05
2018-03-26T01:15:58.279Z,15.13
2018-03-26T01:18:25.980Z,15.82
2018-03-26T01:20:54.361Z,13.83
2018-03-26T01:23:22.978Z,15.10
2018-03-26T01:25:50.662Z,14.27
2018-03-26T01:28:18.324Z,16.80
2018-03-26T01:30:46.023Z,15.52
2018-03-26T01:33:13.682Z,13.27
2018-03-26T01:35:41.322Z,12.40
2018-03-26T01:38:09.793Z,14.48
2018-03-26T01:40:38.988Z,14.77
2018-03-26T01:43:06.645Z,12.80
2018-03-26T01:45:34.355Z,14.77
2018-03-26T01:48:01.960Z,14.20
2018-03-26T01:50:29.783Z,14.73
2018-03-26T01:52:57.405Z,13.35
2018-03-26T01:55:25.801Z,14.02
2018-03-26T01:57:54.801Z,14.18
2018-03-26T02:00:23.215Z,14.20
2018-03-26T02:02:51.668Z,14.02
2018-03-26T02:05:20.038Z,13.27
2018-03-26T02:07:48.429Z,13.13
2018-03-26T02:10:16.818Z,14.52
2018-03-26T02:12:45.230Z,15.65
2018-03-26T02:15:13.014Z,13.62
2018-03-26T02:17:40.666Z,13.90
2018-03-26T02:20:08.271Z,14.70
2018-03-26T02:22:36.915Z,15.02
2018-03-26T02:25:04.547Z,13.13
2018-03-26T02:27:33.001Z,11.55
2018-03-26T02:30:00.706Z,13.48
2018-03-26T02:32:29.114Z,13.75
2018-03-26T02:34:56.807Z,12.82
2018-03-26T02:37:24.431Z,13.68
2018-03-26T02:39:52.868Z,14.43
2018-03-26T02:42:20.538Z,12.68
2018-03-26T02:44:48.216Z,11.70
2018-03-26T02:47:15.977Z,12.52
2018-03-26T02:49:43.642Z,15.47
2018-03-26T02:52:11.302Z,13.45
2018-03-26T02:54:38.968Z,11.43
2018-03-26T02:57:06.632Z,13.23
2018-03-26T02:59:34.302Z,12.48
2018-03-26T03:02:01.980Z,15.02
2018-03-26T03:04:30.414Z,12.68
2018-03-26T03:06:58.825Z,12.02
2018-03-26T03:09:26.619Z,13.00
2018-03-26T03:11:54.248Z,12.37
2018-03-26T03:14:22.420Z,13.25
2018-03-26T03:16:50.108Z,11.80
2018-03-26T03:19:17.731Z,13.45
2018-03-26T03:21:46.194Z,14.18
2018-03-26T03:24:13.870Z,13.20
2018-03-26T03:26:41.526Z,13.57
2018-03-26T03:29:09.170Z,13.43
2018-03-26T03:31:36.814Z,13.52
2018-03-26T03:34:04.732Z,14.38
2018-03-26T03:36:32.383Z,13.60
2018-03-26T03:39:00.005Z,14.00
2018-03-26T03:41:28.025Z,14.32
2018-03-26T03:43:55.653Z,14.15
2018-03-26T03:46:24.799Z,14.43
2018-03-26T03:48:52.444Z,12.00
2018-03-26T03:51:20.091Z,13.88
2018-03-26T03:53:47.732Z,13.55
2018-03-26T03:56:15.388Z,12.40
2018-03-26T03:58:43.066Z,11.90
2018-03-26T04:01:11.494Z,12.57
2018-03-26T04:03:39.910Z,14.20
2018-03-26T04:06:07.580Z,11.88
2018-03-26T04:08:35.191Z,13.62
2018-03-26T04:11:02.869Z,13.62
2018-03-26T04:13:30.477Z,14.20
2018-03-26T04:15:58.112Z,16.17
2018-03-26T04:18:25.786Z,14.65
2018-03-26T04:20:53.465Z,13.35
2018-03-26T04:23:21.081Z,14.68
2018-03-26T04:25:49.521Z,14.60
2018-03-26T04:28:17.626Z,12.82
2018-03-26T04:30:46.063Z,14.27
2018-03-26T04:33:13.762Z,14.00
2018-03-26T04:35:41.440Z,13.82
2018-03-26T04:38:09.064Z,13.47
2018-03-26T04:40:36.838Z,14.63
2018-03-26T04:43:04.456Z,13.38
2018-03-26T04:45:32.889Z,13.50
2018-03-26T04:48:01.571Z,14.07
2018-03-26T04:50:29.175Z,14.23
2018-03-26T04:52:57.358Z,13.73
2018-03-26T04:55:25.029Z,12.13
2018-03-26T04:57:52.688Z,12.40
2018-03-26T05:00:20.343Z,13.60
2018-03-26T05:02:48.031Z,14.15
2018-03-26T05:05:16.578Z,14.65
2018-03-26T05:07:44.324Z,15.43
2018-03-26T05:10:11.998Z,14.27
2018-03-26T05:12:39.637Z,15.50
2018-03-26T05:15:08.043Z,16.23
2018-03-26T05:17:35.705Z,15.63
2018-03-26T05:20:03.389Z,13.88
2018-03-26T05:22:31.408Z,15.17
2018-03-26T05:24:59.068Z,17.00
2018-03-26T05:27:26.763Z,14.60
2018-03-26T05:29:55.187Z,15.05
2018-03-26T05:32:22.864Z,16.42
2018-03-26T05:34:50.534Z,16.60
2018-03-26T05:37:18.201Z,13.93
2018-03-26T05:39:45.918Z,15.40
2018-03-26T05:42:13.588Z,16.87
2018-03-26T05:44:42.003Z,16.45
2018-03-26T05:47:09.657Z,16.48
2018-03-26T05:49:37.336Z,13.97
2018-03-26T05:52:05.025Z,15.45
2018-03-26T05:54:32.766Z,14.80
2018-03-26T05:57:00.436Z,15.73
2018-03-26T05:59:28.054Z,14.23
2018-03-26T06:01:55.701Z,16.17
2018-03-26T06:04:24.627Z,15.02
2018-03-26T06:06:53.041Z,15.02
2018-03-26T06:09:20.703Z,14.93
2018-03-26T06:11:49.024Z,14.57
2018-03-26T06:14:17.405Z,14.02
2018-03-26T06:16:56.922Z,14.90
2018-03-26T06:19:24.555Z,15.00
2018-03-26T06:21:52.985Z,15.40
2018-03-26T06:24:20.636Z,15.45
2018-03-26T06:26:48.287Z,17.37
2018-03-26T06:29:15.986Z,15.52
2018-03-26T06:31:44.297Z,14.93
2018-03-26T06:34:11.961Z,16.35
2018-03-26T06:36:45.302Z,15.57
2018-03-26T06:39:13.562Z,17.02
2018-03-26T06:41:42.301Z,14.15
2018-03-26T06:44:10.060Z,15.10
2018-03-26T06:46:38.462Z,15.45
2018-03-26T06:49:06.135Z,13.83
2018-03-26T06:51:33.790Z,15.93
2018-03-26T06:54:01.399Z,15.05
2018-03-26T06:56:29.849Z,15.85
2018-03-26T06:58:57.713Z,16.00
2018-03-26T07:01:25.368Z,14.30
2018-03-26T07:03:53.747Z,14.32
2018-03-26T07:06:21.475Z,16.23
2018-03-26T07:08:50.045Z,14.77
2018-03-26T07:11:17.685Z,15.27
2018-03-26T07:13:45.337Z,13.65
2018-03-26T07:16:12.953Z,15.13
2018-03-26T07:18:40.630Z,17.80
2018-03-26T07:21:08.316Z,14.25
2018-03-26T07:23:35.998Z,15.90
2018-03-26T07:26:03.641Z,14.93
2018-03-26T07:28:32.135Z,15.80
2018-03-26T07:30:59.794Z,15.02
2018-03-26T07:33:28.908Z,14.30
2018-03-26T07:35:56.639Z,14.87
2018-03-26T07:38:25.011Z,14.77
2018-03-26T07:40:53.395Z,16.33
2018-03-26T07:43:21.034Z,14.13
2018-03-26T07:45:49.098Z,14.77
2018-03-26T07:48:16.792Z,12.65
2018-03-26T07:50:44.419Z,14.48
2018-03-26T07:53:12.834Z,14.77
2018-03-26T07:55:40.472Z,15.45
2018-03-26T07:58:08.109Z,13.90
2018-03-26T08:00:36.686Z,14.05
2018-03-26T08:03:04.635Z,15.60
2018-03-26T08:05:32.264Z,14.43
2018-03-26T08:07:59.929Z,14.38
2018-03-26T08:10:28.311Z,15.13
2018-03-26T08:12:56.882Z,15.77
2018-03-26T08:15:24.530Z,15.40
2018-03-26T08:17:52.219Z,14.35
2018-03-26T08:20:19.893Z,13.27
2018-03-26T08:22:47.524Z,14.25
2018-03-26T08:25:15.303Z,13.07
2018-03-26T08:27:43.008Z,16.45
2018-03-26T08:30:11.065Z,13.55
2018-03-26T08:32:38.719Z,15.35
2018-03-26T08:35:07.039Z,14.73
2018-03-26T08:37:34.667Z,16.25
2018-03-26T08:40:02.285Z,15.25
2018-03-26T08:42:30.047Z,14.80
2018-03-26T08:44:58.435Z,13.50
2018-03-26T08:47:26.146Z,15.75
2018-03-26T08:49:54.114Z,14.38
2018-03-26T08:52:22.753Z,14.00
2018-03-26T08:54:50.365Z,15.73
2018-03-26T08:57:18.024Z,15.38
2018-03-26T08:59:45.997Z,15.02
2018-03-26T09:02:13.733Z,15.20
2018-03-26T09:04:41.346Z,15.18
2018-03-26T09:07:08.981Z,17.15
2018-03-26T09:09:36.637Z,16.23
2018-03-26T09:12:08.124Z,16.30
2018-03-26T09:14:36.325Z,16.57
2018-03-26T09:17:04.878Z,16.05
2018-03-26T09:19:32.528Z,17.93
2018-03-26T09:22:00.506Z,15.75
2018-03-26T09:24:28.139Z,17.50
2018-03-26T09:26:56.537Z,17.02
2018-03-26T09:29:24.215Z,16.20
2018-03-26T09:31:51.837Z,16.75
2018-03-26T09:34:22.217Z,18.62
2018-03-26T09:36:50.692Z,17.40
2018-03-26T09:39:18.305Z,18.33
2018-03-26T09:41:46.752Z,17.37
2018-03-26T09:44:14.500Z,20.58
2018-03-26T09:46:42.137Z,20.40
2018-03-26T09:49:09.999Z,18.35
2018-03-26T09:51:38.046Z,20.92
2018-03-26T09:54:05.676Z,18.92
2018-03-26T09:56:33.764Z,19.67
2018-03-26T09:59:01.416Z,20.08
2018-03-26T10:01:32.415Z,17.67
2018-03-26T10:04:00.890Z,16.90
2018-03-26T10:06:28.529Z,17.27
2018-03-26T10:08:56.426Z,18.23
2018-03-26T10:11:24.099Z,20.12
2018-03-26T10:13:51.786Z,19.40
2018-03-26T10:16:19.470Z,20.10
2018-03-26T10:18:47.117Z,19.67
2018-03-26T10:21:14.761Z,19.30
2018-03-26T10:23:42.408Z,20.00
2018-03-26T10:26:10.045Z,23.80
2018-03-26T10:28:38.502Z,21.92
2018-03-26T10:31:06.159Z,17.95
2018-03-26T10:33:33.845Z,19.25
2018-03-26T10:36:02.615Z,19.25
2018-03-26T10:38:31.216Z,20.37
2018-03-26T10:40:58.882Z,19.17
2018-03-26T10:43:26.515Z,19.80
2018-03-26T10:45:54.346Z,21.27
2018-03-26T10:48:22.831Z,19.55
2018-03-26T10:50:51.289Z,20.35
2018-03-26T10:53:18.908Z,18.25
2018-03-26T10:55:46.599Z,18.05
2018-03-26T10:58:14.231Z,20.52
2018-03-26T11:00:42.665Z,19.33
2018-03-26T11:03:10.304Z,17.23
2018-03-26T11:05:37.945Z,16.60
2018-03-26T11:08:06.406Z,16.90
2018-03-26T11:10:34.122Z,18.17
2018-03-26T11:13:01.766Z,18.58
2018-03-26T11:15:30.212Z,16.58
2018-03-26T11:17:57.906Z,16.77
2018-03-26T11:20:26.319Z,16.98
2018-03-26T11:22:56.245Z,14.57
2018-03-26T11:25:23.882Z,14.10
2018-03-26T11:27:52.335Z,14.27
2018-03-26T11:30:19.988Z,14.70
2018-03-26T11:32:47.712Z,14.43
2018-03-26T11:35:16.180Z,13.35
2018-03-26T11:37:43.844Z,13.77
2018-03-26T11:40:13.229Z,12.57
2018-03-26T11:42:40.869Z,14.02
2018-03-26T11:45:08.533Z,12.60
2018-03-26T11:47:36.195Z,11.38
2018-03-26T11:50:03.851Z,12.48
2018-03-26T11:52:31.551Z,11.25
2018-03-26T11:54:59.220Z,12.50
2018-03-26T11:57:26.873Z,13.87
2018-03-26T11:59:54.604Z,10.98
2018-03-26T12:02:22.261Z,12.70
2018-03-26T12:04:50.680Z,11.40
2018-03-26T12:07:18.330Z,11.65
2018-03-26T12:09:45.942Z,11.50
2018-03-26T12:12:15.202Z,11.10
2018-03-26T12:14:42.862Z,10.65
2018-03-26T12:17:10.533Z,11.12
2018-03-26T12:19:50.045Z,12.37
2018-03-26T12:22:18.453Z,10.23
2018-03-26T12:24:58.471Z,10.93
2018-03-26T12:27:26.540Z,10.77
2018-03-26T12:30:06.885Z,10.75
2018-03-26T12:32:34.559Z,12.30
2018-03-26T12:35:14.233Z,11.75
2018-03-26T12:37:42.650Z,11.03
2018-03-26T12:40:22.125Z,12.02
2018-03-26T12:42:49.770Z,12.17
2018-03-26T12:48:20.478Z,13.80
2018-03-26T12:51:00.078Z,13.75
2018-03-26T12:53:27.791Z,14.38
2018-03-26T12:55:55.469Z,14.67
2018-03-26T12:58:34.934Z,15.52
2018-03-26T13:01:14.397Z,14.60
2018-03-26T13:03:42.810Z,12.98
2018-03-26T13:06:10.518Z,14.35
2018-03-26T13:08:38.113Z,18.27
2018-03-26T13:11:06.545Z,16.98
2018-03-26T13:13:34.508Z,15.75
2018-03-26T13:16:02.121Z,17.40
2018-03-26T13:18:29.781Z,15.95
2018-03-26T13:20:57.431Z,16.12
2018-03-26T13:23:25.066Z,16.73
2018-03-26T13:25:52.714Z,14.57
2018-03-26T13:28:21.404Z,17.20
2018-03-26T13:30:49.019Z,15.80
2018-03-26T13:33:16.635Z,17.80
2018-03-26T13:35:44.293Z,15.27
2018-03-26T13:38:12.725Z,16.05
2018-03-26T13:40:40.373Z,14.95
2018-03-26T13:43:08.666Z,15.02
2018-03-26T13:45:36.298Z,14.23
2018-03-26T13:48:04.002Z,15.02
2018-03-26T13:50:31.670Z,14.53
2018-03-26T13:52:59.357Z,15.05
2018-03-26T13:55:27.043Z,15.05
2018-03-26T13:57:55.516Z,13.82
2018-03-26T14:00:23.163Z,14.15
2018-03-26T14:02:50.836Z,16.67
2018-03-26T14:05:18.459Z,13.75
2018-03-26T14:07:46.123Z,14.43
2018-03-26T14:10:25.392Z,13.73
2018-03-26T14:13:05.050Z,13.60
2018-03-26T14:15:44.466Z,12.23
2018-03-26T14:18:12.229Z,11.07
2018-03-26T14:20:39.862Z,9.45
2018-03-26T14:23:07.508Z,9.30
2018-03-26T14:25:35.913Z,9.25
2018-03-26T14:28:03.524Z,7.30
2018-03-26T14:30:31.203Z,6.45
2018-03-26T14:32:58.817Z,6.93
2018-03-26T14:35:41.349Z,7.00
2018-03-26T14:38:08.990Z,6.62
2018-03-26T14:40:36.955Z,6.20
2018-03-26T14:43:04.699Z,6.07
2018-03-26T14:45:33.711Z,5.18
2018-03-26T14:48:02.138Z,4.65
2018-03-26T14:50:29.785Z,5.33
2018-03-26T14:52:57.473Z,5.07
2018-03-26T14:55:26.108Z,4.15
2018-03-26T14:57:53.765Z,4.45
2018-03-26T15:00:21.448Z,3.50
2018-03-26T15:02:49.891Z,3.80
2018-03-26T15:05:17.490Z,3.53
2018-03-26T15:07:46.871Z,3.80
2018-03-26T15:10:14.545Z,4.45
2018-03-26T15:12:42.246Z,4.18
2018-03-26T15:15:10.624Z,4.35
2018-03-26T15:17:39.026Z,4.32
2018-03-26T15:20:06.668Z,3.10
2018-03-26T15:22:35.090Z,4.37
2018-03-26T15:25:02.912Z,2.87
2018-03-26T15:27:31.296Z,5.65
2018-03-26T15:29:58.923Z,4.60
2018-03-26T15:32:26.574Z,3.72
2018-03-26T15:34:54.226Z,3.87
2018-03-26T15:37:21.876Z,4.25
2018-03-26T15:39:50.304Z,4.40
2018-03-26T15:42:18.272Z,4.62
2018-03-26T15:44:45.910Z,3.70
2018-03-26T15:47:13.732Z,4.12
2018-03-26T15:49:41.365Z,3.93
2018-03-26T15:52:08.959Z,3.70
2018-03-26T15:54:36.591Z,3.83
2018-03-26T15:57:04.999Z,4.50
2018-03-26T15:59:32.667Z,4.30
2018-03-26T16:01:59.862Z,4.00
2018-03-26T16:04:27.495Z,4.93
2018-03-26T16:06:55.191Z,4.45
2018-03-26T16:09:23.687Z,3.70
2018-03-26T16:11:52.111Z,4.47
2018-03-26T16:14:19.779Z,4.30
2018-03-26T16:16:47.872Z,3.97
2018-03-26T16:19:15.595Z,4.28
2018-03-26T16:21:45.263Z,4.75
2018-03-26T16:24:12.925Z,4.80
2018-03-26T16:26:40.629Z,5.00
2018-03-26T16:29:15.322Z,4.03
2018-03-26T16:31:43.025Z,4.20
2018-03-26T16:34:11.564Z,3.97
2018-03-26T16:36:39.251Z,4.40
2018-03-26T16:39:07.043Z,4.05
2018-03-26T16:41:46.660Z,4.57
2018-03-26T16:44:14.605Z,4.35
2018-03-26T16:46:42.449Z,4.18
2018-03-26T16:49:10.881Z,5.82
2018-03-26T16:51:38.539Z,4.00
2018-03-26T16:54:06.496Z,4.57
2018-03-26T16:56:34.192Z,5.43
2018-03-26T16:59:01.835Z,5.70
2018-03-26T17:01:29.775Z,4.90
2018-03-26T17:03:58.157Z,4.10
2018-03-26T17:06:26.558Z,4.12
2018-03-26T17:08:54.980Z,4.20
2018-03-26T17:11:22.622Z,4.15
2018-03-26T17:13:50.366Z,4.22
2018-03-26T17:16:18.771Z,4.53
2018-03-26T17:18:46.407Z,5.50
2018-03-26T17:21:15.134Z,3.87
2018-03-26T17:23:42.798Z,3.87
2018-03-26T17:26:10.439Z,3.90
2018-03-26T17:28:38.877Z,4.47
2018-03-26T17:31:06.849Z,5.00
2018-03-26T17:33:34.509Z,3.85
2018-03-26T17:36:02.145Z,4.05
2018-03-26T17:38:30.232Z,5.70
2018-03-26T17:40:57.858Z,4.22
2018-03-26T17:43:26.267Z,4.07
2018-03-26T17:45:53.955Z,4.40
2018-03-26T17:48:21.662Z,4.28
2018-03-26T17:50:49.315Z,5.15
2018-03-26T17:53:16.931Z,4.30
2018-03-26T17:55:45.362Z,4.28
2018-03-26T17:58:13.779Z,4.65
2018-03-26T18:00:41.459Z,4.05
2018-03-26T18:03:10.003Z,4.80
2018-03-26T18:05:37.599Z,4.65
2018-03-26T18:08:05.228Z,4.30
2018-03-26T18:10:33.102Z,4.97
2018-03-26T18:13:01.571Z,4.40
2018-03-26T18:15:29.225Z,4.32
2018-03-26T18:17:56.834Z,4.22
2018-03-26T18:20:24.489Z,5.12
2018-03-26T18:22:52.157Z,5.07
2018-03-26T18:25:20.562Z,4.60
2018-03-26T18:27:48.244Z,5.47
2018-03-26T18:30:15.880Z,5.62
2018-03-26T18:32:44.061Z,4.30
2018-03-26T18:35:13.444Z,4.85
2018-03-26T18:37:41.125Z,5.37
2018-03-26T18:40:08.791Z,5.07
2018-03-26T18:42:36.578Z,4.72
2018-03-26T18:45:04.230Z,5.50
2018-03-26T18:47:31.871Z,5.10
2018-03-26T18:49:59.493Z,5.53
2018-03-26T18:52:27.130Z,5.10
2018-03-26T18:54:54.797Z,7.10
2018-03-26T18:57:23.022Z,5.32
2018-03-26T18:59:50.664Z,5.03
2018-03-26T19:02:18.350Z,7.22
2018-03-26T19:04:46.023Z,5.90
2018-03-26T19:07:13.694Z,4.80
2018-03-26T19:09:42.063Z,5.53
2018-03-26T19:12:10.247Z,4.85
2018-03-26T19:14:38.650Z,4.82
2018-03-26T19:17:06.450Z,5.12
2018-03-26T19:19:34.900Z,4.95
2018-03-26T19:22:02.536Z,6.68
2018-03-26T19:24:30.177Z,5.78
2018-03-26T19:26:57.785Z,8.82
2018-03-26T19:29:25.418Z,6.75
2018-03-26T19:31:53.088Z,5.87
2018-03-26T19:34:20.954Z,6.90
2018-03-26T19:36:48.591Z,6.60
2018-03-26T19:39:16.998Z,7.20
2018-03-26T19:41:44.595Z,7.90
2018-03-26T19:44:12.282Z,9.10
2018-03-26T19:46:39.959Z,10.15
2018-03-26T19:49:08.423Z,8.65
2018-03-26T19:51:36.046Z,7.30
2018-03-26T19:54:04.579Z,6.57
2018-03-26T19:56:32.202Z,6.87
2018-03-26T19:58:59.786Z,8.13
2018-03-26T20:01:27.430Z,6.60
2018-03-26T20:03:55.092Z,10.07
2018-03-26T20:06:23.561Z,11.20
2018-03-26T20:08:51.992Z,13.75
2018-03-26T20:11:19.668Z,10.50
2018-03-26T20:13:47.329Z,7.18
2018-03-26T20:16:14.944Z,6.23
2018-03-26T20:18:42.573Z,5.97
2018-03-26T20:21:10.214Z,6.53
2018-03-26T20:23:37.846Z,5.70
2018-03-26T20:26:06.445Z,5.40
2018-03-26T20:28:34.847Z,5.53
2018-03-26T20:31:02.511Z,5.12
2018-03-26T20:33:30.140Z,4.75
2018-03-26T20:35:57.795Z,4.65
2018-03-26T20:38:25.515Z,5.20
2018-03-26T20:40:53.857Z,4.72
2018-03-26T20:43:21.496Z,5.28
2018-03-26T20:45:49.530Z,4.68
2018-03-26T20:48:17.159Z,5.37
2018-03-26T20:50:44.814Z,4.72
2018-03-26T20:53:12.482Z,4.57
2018-03-26T20:55:40.881Z,4.65
2018-03-26T20:58:08.514Z,4.25
2018-03-26T21:00:36.122Z,4.65
2018-03-26T21:03:04.877Z,4.20
2018-03-26T21:05:32.543Z,4.20
2018-03-26T21:08:00.225Z,4.80
2018-03-26T21:10:27.882Z,4.47
2018-03-26T21:12:55.514Z,5.35
2018-03-26T21:15:23.110Z,4.53
2018-03-26T21:17:50.758Z,4.85
2018-03-26T21:20:18.403Z,4.85
2018-03-26T21:22:46.802Z,5.12
2018-03-26T21:25:14.397Z,4.40
2018-03-26T21:27:42.052Z,4.80
2018-03-26T21:30:09.702Z,4.62
2018-03-26T21:32:37.372Z,4.50
2018-03-26T21:35:05.585Z,5.50
2018-03-26T21:37:33.211Z,4.35
2018-03-26T21:40:00.832Z,4.40
2018-03-26T21:42:28.467Z,4.30
2018-03-26T21:44:56.086Z,4.45
2018-03-26T21:47:24.509Z,3.95
2018-03-26T21:49:52.171Z,4.68
2018-03-26T21:52:20.008Z,4.20
2018-03-26T21:54:47.678Z,4.30
2018-03-26T21:57:16.610Z,4.60
2018-03-26T21:59:45.020Z,4.28
2018-03-26T22:02:12.676Z,5.05
2018-03-26T22:04:40.364Z,4.70
2018-03-26T22:07:07.989Z,4.25
2018-03-26T22:09:35.612Z,4.70
2018-03-26T22:12:03.283Z,4.72
2018-03-26T22:14:30.883Z,5.20
2018-03-26T22:16:58.902Z,4.68
2018-03-26T22:19:26.520Z,4.40
2018-03-26T22:21:54.122Z,3.85
2018-03-26T22:24:21.749Z,5.12
2018-03-26T22:26:49.364Z,4.35
2018-03-26T22:29:17.013Z,4.10
2018-03-26T22:31:44.673Z,5.93
2018-03-26T22:34:12.257Z,4.37
2018-03-26T22:36:39.860Z,5.37
2018-03-26T22:39:08.290Z,4.32
2018-03-26T22:41:35.918Z,5.10
2018-03-26T22:44:03.565Z,4.70
2018-03-26T22:46:31.964Z,4.43
2018-03-26T22:49:00.394Z,4.60
2018-03-26T22:51:28.059Z,4.32
2018-03-26T22:53:55.756Z,4.22
2018-03-26T22:56:23.382Z,4.20
2018-03-26T22:58:50.997Z,4.55
2018-03-26T23:01:18.630Z,4.62
2018-03-26T23:03:46.254Z,4.43
2018-03-26T23:06:14.622Z,5.70
2018-03-26T23:08:42.271Z,4.85
2018-03-26T23:11:09.943Z,4.25
2018-03-26T23:13:37.577Z,4.32
2018-03-26T23:16:05.172Z,4.60
2018-03-26T23:18:32.813Z,4.82
2018-03-26T23:21:00.416Z,4.28
2018-03-26T23:23:28.041Z,4.40
2018-03-26T23:25:55.643Z,4.47
2018-03-26T23:28:23.326Z,4.60
2018-03-26T23:30:51.750Z,4.15
2018-03-26T23:33:19.365Z,4.50
2018-03-26T23:35:47.133Z,4.35
2018-03-26T23:38:15.513Z,4.43
2018-03-26T23:40:43.171Z,4.93
2018-03-26T23:43:10.802Z,4.93
2018-03-26T23:45:38.470Z,5.07
2018-03-26T23:48:06.085Z,4.72
2018-03-26T23:50:34.084Z,4.45
2018-03-26T23:53:01.685Z,4.45
2018-03-26T23:55:29.285Z,4.75
2018-03-26T23:57:57.035Z,4.70
